createdAt,value
2018-07-07T00:00:50.202Z,76.81
2018-07-07T00:01:50.185Z,76.31
2018-07-07T00:02:50.176Z,76.40
2018-07-07T00:03:50.167Z,76.10
2018-07-07T00:04:50.153Z,77.62
2018-07-07T00:05:50.147Z,75.70
2018-07-07T00:06:50.139Z,75.59
2018-07-07T00:07:50.125Z,75.49
2018-07-07T00:08:50.119Z,73.97
2018-07-07T00:09:50.100Z,73.97
2018-07-07T00:10:50.087Z,72.45
2018-07-07T00:11:50.076Z,77.22
2018-07-07T00:12:50.075Z,75.19
2018-07-07T00:13:50.080Z,76.98
2018-07-07T00:14:50.050Z,73.73
2018-07-07T00:15:50.033Z,72.92
2018-07-07T00:16:50.023Z,74.14
2018-07-07T00:17:50.019Z,72.72
2018-07-07T00:18:50.055Z,71.00
2018-07-07T00:19:50.003Z,70.69
2018-07-07T00:20:49.986Z,72.92
2018-07-07T00:21:49.969Z,72.82
2018-07-07T00:22:49.956Z,72.82
2018-07-07T00:23:49.945Z,77.18
2018-07-07T00:24:49.939Z,74.24
2018-07-07T00:25:49.938Z,73.02
2018-07-07T00:26:49.920Z,72.82
2018-07-07T00:27:49.909Z,72.92
2018-07-07T00:28:49.898Z,72.04
2018-07-07T00:29:49.886Z,72.55
2018-07-07T00:30:49.869Z,68.49
2018-07-07T00:31:49.866Z,68.39
2018-07-07T00:32:49.852Z,67.38
2018-07-07T00:33:49.840Z,70.21
2018-07-07T00:34:49.828Z,66.05
2018-07-07T00:35:49.816Z,66.16
2018-07-07T00:36:49.808Z,69.10
2018-07-07T00:37:49.798Z,68.59
2018-07-07T00:38:49.788Z,67.68
2018-07-07T00:39:49.781Z,71.64
2018-07-07T00:40:49.765Z,68.96
2018-07-07T00:41:49.754Z,67.24
2018-07-07T00:42:49.739Z,65.52
2018-07-07T00:43:49.729Z,65.31
2018-07-07T00:44:49.769Z,63.08
2018-07-07T00:45:49.710Z,63.79
2018-07-07T00:46:49.713Z,61.16
2018-07-07T00:47:49.688Z,69.37
2018-07-07T00:48:49.675Z,68.76
2018-07-07T00:49:49.669Z,68.26
2018-07-07T00:50:49.675Z,65.62
2018-07-07T00:51:49.648Z,65.28
2018-07-07T00:52:49.636Z,64.27
2018-07-07T00:53:49.621Z,65.08
2018-07-07T00:54:49.612Z,62.54
2018-07-07T00:55:49.612Z,61.53
2018-07-07T00:56:49.589Z,65.56
2018-07-07T00:57:49.580Z,65.96
2018-07-07T00:58:49.573Z,65.08
2018-07-07T00:59:49.562Z,63.12
2018-07-07T01:00:49.551Z,64.95
2018-07-07T01:01:49.535Z,65.15
2018-07-07T01:02:49.524Z,61.80
2018-07-07T01:03:49.518Z,64.04
2018-07-07T01:04:49.518Z,62.92
2018-07-07T01:05:49.527Z,65.15
2018-07-07T01:06:49.487Z,69.10
2018-07-07T01:07:49.468Z,65.45
2018-07-07T01:08:49.459Z,61.80
2018-07-07T01:09:49.451Z,65.96
2018-07-07T01:10:49.442Z,66.37
2018-07-07T01:11:49.434Z,68.40
2018-07-07T01:12:49.419Z,66.77
2018-07-07T01:13:49.409Z,68.09
2018-07-07T01:14:49.408Z,67.08
2018-07-07T01:15:49.410Z,66.77
2018-07-07T01:16:49.372Z,63.63
2018-07-07T01:17:49.365Z,66.80
2018-07-07T01:18:49.358Z,65.76
2018-07-07T01:19:49.360Z,68.49
2018-07-07T01:20:49.331Z,65.05
2018-07-07T01:21:49.328Z,67.00
2018-07-07T01:22:49.306Z,64.95
2018-07-07T01:23:49.296Z,64.64
2018-07-07T01:24:49.290Z,64.24
2018-07-07T01:25:49.292Z,65.25
2018-07-07T01:26:49.272Z,67.41
2018-07-07T01:27:49.260Z,66.80
2018-07-07T01:28:49.246Z,69.71
2018-07-07T01:29:49.234Z,68.49
2018-07-07T01:30:49.220Z,66.27
2018-07-07T01:31:49.215Z,65.96
2018-07-07T01:32:49.226Z,66.91
2018-07-07T01:33:49.193Z,64.47
2018-07-07T01:34:49.187Z,64.98
2018-07-07T01:35:49.166Z,63.86
2018-07-07T01:36:49.177Z,68.15
2018-07-07T01:37:49.215Z,65.82
2018-07-07T01:38:49.143Z,64.00
2018-07-07T01:39:49.131Z,63.59
2018-07-07T01:40:49.117Z,67.17
2018-07-07T01:41:49.130Z,67.98
2018-07-07T01:42:49.092Z,66.36
2018-07-07T01:43:49.080Z,69.10
2018-07-07T01:44:49.072Z,69.03
2018-07-07T01:45:49.063Z,69.54
2018-07-07T01:46:49.055Z,71.97
2018-07-07T01:47:49.046Z,69.67
2018-07-07T01:48:49.032Z,70.28
2018-07-07T01:49:49.017Z,71.43
2018-07-07T01:50:49.004Z,70.62
2018-07-07T01:51:49.001Z,70.82
2018-07-07T01:52:48.994Z,74.31
2018-07-07T01:53:48.978Z,69.33
2018-07-07T01:54:48.962Z,69.36
2018-07-07T01:55:48.950Z,73.02
2018-07-07T01:56:48.941Z,72.62
2018-07-07T01:57:48.934Z,73.47
2018-07-07T01:58:48.924Z,73.97
2018-07-07T01:59:48.915Z,73.80
2018-07-07T02:00:48.904Z,74.11
2018-07-07T02:01:48.894Z,74.32
2018-07-07T02:02:48.884Z,75.23
2018-07-07T02:03:48.863Z,74.15
2018-07-07T02:04:48.857Z,76.69
2018-07-07T02:05:48.855Z,74.25
2018-07-07T02:06:48.837Z,77.20
2018-07-07T02:07:48.849Z,74.99
2018-07-07T02:08:48.814Z,75.06
2018-07-07T02:09:48.803Z,76.01
2018-07-07T02:10:48.821Z,77.34
2018-07-07T02:11:48.785Z,74.79
2018-07-07T02:12:48.773Z,75.44
2018-07-07T02:13:48.769Z,75.34
2018-07-07T02:14:48.750Z,77.78
2018-07-07T02:15:48.734Z,77.68
2018-07-07T02:16:48.725Z,75.13
2018-07-07T02:17:48.768Z,76.05
2018-07-07T02:18:48.754Z,76.87
2018-07-07T02:19:48.698Z,81.39
2018-07-07T02:20:48.690Z,77.92
2018-07-07T02:21:48.700Z,80.57
2018-07-07T02:22:48.670Z,79.35
2018-07-07T02:23:48.680Z,80.68
2018-07-07T02:24:48.659Z,79.49
2018-07-07T02:25:48.628Z,79.86
2018-07-07T02:26:48.615Z,81.32
2018-07-07T02:27:48.604Z,80.51
2018-07-07T02:28:48.601Z,82.24
2018-07-07T02:29:48.587Z,82.71
2018-07-07T02:30:48.584Z,83.06
2018-07-07T02:31:48.583Z,84.14
2018-07-07T02:32:48.555Z,84.49
2018-07-07T02:33:48.547Z,85.51
2018-07-07T02:34:48.532Z,86.49
2018-07-07T02:35:48.517Z,86.39
2018-07-07T02:36:48.509Z,86.59
2018-07-07T02:37:48.499Z,86.02
2018-07-07T02:38:48.493Z,85.88
2018-07-07T02:39:48.473Z,85.77
2018-07-07T02:40:48.465Z,84.34
2018-07-07T02:41:48.457Z,85.51
2018-07-07T02:42:48.448Z,86.69
2018-07-07T02:43:48.457Z,85.47
2018-07-07T02:44:48.426Z,85.47
2018-07-07T02:45:48.412Z,86.29
2018-07-07T02:46:48.398Z,87.41
2018-07-07T02:47:48.388Z,85.77
2018-07-07T02:48:48.382Z,85.57
2018-07-07T02:49:48.370Z,85.88
2018-07-07T02:50:48.361Z,84.14
2018-07-07T02:51:48.350Z,83.23
2018-07-07T02:52:48.338Z,83.33
2018-07-07T02:53:48.326Z,83.84
2018-07-07T02:54:48.311Z,84.34
2018-07-07T02:55:48.307Z,83.02
2018-07-07T02:56:48.294Z,84.25
2018-07-07T02:57:48.281Z,84.25
2018-07-07T02:58:48.299Z,83.53
2018-07-07T02:59:48.256Z,86.39
2018-07-07T03:00:48.296Z,86.59
2018-07-07T03:01:48.240Z,85.98
2018-07-07T03:02:48.237Z,87.71
2018-07-07T03:03:48.221Z,87.30
2018-07-07T03:04:48.211Z,86.49
2018-07-07T03:05:48.198Z,84.90
2018-07-07T03:06:48.182Z,86.49
2018-07-07T03:07:48.220Z,87.71
2018-07-07T03:08:48.163Z,88.63
2018-07-07T03:09:48.228Z,87.82
2018-07-07T03:10:48.146Z,88.22
2018-07-07T03:11:48.132Z,86.39
2018-07-07T03:12:48.118Z,87.30
2018-07-07T03:13:48.112Z,89.04
2018-07-07T03:14:48.122Z,86.59
2018-07-07T03:15:48.122Z,86.39
2018-07-07T03:16:48.077Z,86.80
2018-07-07T03:17:48.071Z,87.16
2018-07-07T03:18:48.051Z,87.67
2018-07-07T03:19:48.040Z,86.96
2018-07-07T03:20:48.033Z,84.11
2018-07-07T03:21:48.024Z,85.33
2018-07-07T03:22:48.015Z,86.15
2018-07-07T03:23:48.003Z,83.70
2018-07-07T03:24:47.991Z,85.22
2018-07-07T03:25:47.997Z,83.09
2018-07-07T03:26:47.967Z,85.28
2018-07-07T03:27:47.961Z,85.08
2018-07-07T03:28:47.947Z,84.47
2018-07-07T03:29:47.935Z,84.37
2018-07-07T03:30:47.954Z,84.78
2018-07-07T03:31:47.911Z,85.60
2018-07-07T03:32:47.903Z,83.70
2018-07-07T03:33:47.893Z,83.80
2018-07-07T03:34:47.891Z,84.72
2018-07-07T03:35:47.890Z,86.45
2018-07-07T03:36:47.865Z,85.69
2018-07-07T03:37:47.848Z,85.53
2018-07-07T03:38:47.839Z,85.53
2018-07-07T03:39:47.826Z,86.00
2018-07-07T03:40:47.817Z,86.51
2018-07-07T03:41:47.809Z,87.23
2018-07-07T03:42:47.800Z,86.61
2018-07-07T03:43:47.783Z,87.43
2018-07-07T03:44:47.773Z,86.51
2018-07-07T03:45:47.765Z,84.27
2018-07-07T03:46:47.764Z,84.20
2018-07-07T03:47:47.761Z,84.11
2018-07-07T03:48:47.744Z,83.70
2018-07-07T03:49:47.720Z,81.21
2018-07-07T03:50:47.706Z,82.68
2018-07-07T03:51:47.697Z,82.68
2018-07-07T03:52:47.688Z,83.09
2018-07-07T03:53:47.682Z,84.11
2018-07-07T03:54:47.697Z,85.13
2018-07-07T03:55:47.664Z,83.59
2018-07-07T03:56:47.648Z,85.43
2018-07-07T03:57:47.634Z,84.78
2018-07-07T03:58:47.688Z,82.57
2018-07-07T03:59:47.629Z,83.90
2018-07-07T04:00:47.628Z,85.13
2018-07-07T04:01:47.638Z,85.19
2018-07-07T04:02:47.577Z,85.39
2018-07-07T04:03:47.567Z,85.28
2018-07-07T04:04:47.559Z,85.60
2018-07-07T04:05:47.576Z,84.17
2018-07-07T04:06:47.546Z,87.12
2018-07-07T04:07:47.533Z,85.19
2018-07-07T04:08:47.521Z,86.00
2018-07-07T04:09:47.504Z,87.43
2018-07-07T04:10:47.536Z,83.15
2018-07-07T04:11:47.480Z,85.19
2018-07-07T04:12:47.474Z,83.15
2018-07-07T04:13:47.464Z,84.06
2018-07-07T04:14:47.456Z,85.90
2018-07-07T04:15:47.440Z,84.98
2018-07-07T04:16:47.448Z,80.70
2018-07-07T04:17:47.430Z,82.29
2018-07-07T04:18:47.412Z,84.84
2018-07-07T04:19:47.402Z,83.01
2018-07-07T04:20:47.388Z,83.72
2018-07-07T04:21:47.374Z,83.11
2018-07-07T04:22:47.380Z,79.75
2018-07-07T04:23:47.358Z,78.32
2018-07-07T04:24:47.346Z,80.26
2018-07-07T04:25:47.333Z,80.46
2018-07-07T04:26:47.320Z,78.63
2018-07-07T04:27:47.334Z,79.61
2018-07-07T04:28:47.298Z,80.22
2018-07-07T04:29:47.290Z,74.41
2018-07-07T04:30:47.287Z,76.35
2018-07-07T04:31:47.264Z,80.52
2018-07-07T04:32:47.259Z,76.56
2018-07-07T04:33:47.252Z,79.44
2018-07-07T04:34:47.239Z,80.66
2018-07-07T04:35:47.231Z,78.83
2018-07-07T04:36:47.216Z,77.71
2018-07-07T04:37:47.202Z,79.75
2018-07-07T04:38:47.208Z,82.19
2018-07-07T04:39:47.178Z,82.19
2018-07-07T04:40:47.169Z,81.58
2018-07-07T04:41:47.165Z,80.09
2018-07-07T04:42:47.152Z,82.33
2018-07-07T04:43:47.194Z,83.56
2018-07-07T04:44:47.172Z,84.17
2018-07-07T04:45:47.131Z,83.96
2018-07-07T04:46:47.106Z,82.23
2018-07-07T04:47:47.116Z,83.25
2018-07-07T04:48:47.106Z,83.59
2018-07-07T04:49:47.078Z,84.88
2018-07-07T04:50:47.063Z,85.13
2018-07-07T04:51:47.048Z,85.13
2018-07-07T04:52:47.040Z,84.72
2018-07-07T04:53:47.033Z,85.84
2018-07-07T04:54:47.025Z,86.45
2018-07-07T04:55:47.012Z,83.84
2018-07-07T04:56:47.000Z,83.84
2018-07-07T04:57:46.985Z,84.14
2018-07-07T04:58:46.975Z,84.14
2018-07-07T04:59:46.964Z,85.16
2018-07-07T05:00:46.953Z,86.49
2018-07-07T05:01:46.945Z,86.35
2018-07-07T05:02:46.937Z,84.34
2018-07-07T05:03:46.920Z,84.25
2018-07-07T05:04:46.914Z,81.49
2018-07-07T05:05:46.923Z,78.09
2018-07-07T05:06:46.893Z,78.19
2018-07-07T05:07:46.883Z,75.54
2018-07-07T05:08:46.870Z,74.49
2018-07-07T05:09:46.882Z,73.88
2018-07-07T05:10:46.844Z,74.58
2018-07-07T05:11:46.849Z,75.20
2018-07-07T05:12:46.851Z,75.78
2018-07-07T05:13:46.832Z,79.85
2018-07-07T05:14:46.822Z,73.64
2018-07-07T05:15:46.814Z,73.33
2018-07-07T05:16:46.784Z,74.52
2018-07-07T05:17:46.785Z,72.78
2018-07-07T05:18:46.770Z,73.30
2018-07-07T05:19:46.769Z,70.51
2018-07-07T05:20:46.756Z,73.06
2018-07-07T05:21:46.730Z,76.38
2018-07-07T05:22:46.715Z,74.18
2018-07-07T05:23:46.704Z,74.24
2018-07-07T05:24:46.696Z,75.67
2018-07-07T05:25:46.694Z,71.70
2018-07-07T05:26:46.682Z,73.33
2018-07-07T05:27:46.668Z,72.11
2018-07-07T05:28:46.656Z,71.77
2018-07-07T05:29:46.643Z,72.38
2018-07-07T05:30:46.643Z,72.17
2018-07-07T05:31:46.681Z,72.14
2018-07-07T05:32:46.627Z,72.25
2018-07-07T05:33:46.608Z,72.34
2018-07-07T05:34:46.612Z,74.79
2018-07-07T05:35:46.654Z,72.92
2018-07-07T05:36:46.565Z,70.28
2018-07-07T05:37:46.571Z,68.55
2018-07-07T05:38:46.549Z,70.28
2018-07-07T05:39:46.545Z,70.89
2018-07-07T05:40:46.526Z,68.86
2018-07-07T05:41:46.514Z,70.25
2018-07-07T05:42:46.498Z,69.84
2018-07-07T05:43:46.489Z,69.03
2018-07-07T05:44:46.480Z,70.76
2018-07-07T05:45:46.474Z,72.99
2018-07-07T05:46:46.482Z,71.64
2018-07-07T05:47:46.463Z,71.64
2018-07-07T05:48:46.439Z,68.49
2018-07-07T05:49:46.425Z,68.90
2018-07-07T05:50:46.411Z,68.66
2018-07-07T05:51:46.405Z,64.50
2018-07-07T05:52:46.394Z,65.52
2018-07-07T05:53:46.382Z,65.18
2018-07-07T05:54:46.367Z,65.08
2018-07-07T05:55:46.358Z,64.47
2018-07-07T05:56:46.372Z,65.18
2018-07-07T05:57:46.340Z,67.11
2018-07-07T05:58:46.332Z,67.61
2018-07-07T05:59:46.321Z,66.40
2018-07-07T06:00:46.309Z,67.41
2018-07-07T06:01:46.345Z,66.50
2018-07-07T06:02:46.282Z,68.43
2018-07-07T06:03:46.273Z,67.72
2018-07-07T06:04:46.262Z,69.84
2018-07-07T06:05:46.254Z,66.50
2018-07-07T06:06:46.244Z,68.70
2018-07-07T06:07:46.231Z,68.73
2018-07-07T06:08:46.219Z,65.05
2018-07-07T06:09:46.211Z,68.36
2018-07-07T06:10:46.201Z,67.14
2018-07-07T06:11:46.193Z,66.91
2018-07-07T06:12:46.183Z,64.45
2018-07-07T06:13:46.166Z,64.35
2018-07-07T06:14:46.152Z,67.96
2018-07-07T06:15:46.142Z,65.81
2018-07-07T06:16:46.146Z,67.22
2018-07-07T06:17:46.170Z,68.43
2018-07-07T06:18:46.124Z,64.29
2018-07-07T06:19:46.117Z,63.38
2018-07-07T06:20:46.112Z,62.98
2018-07-07T06:21:46.084Z,62.27
2018-07-07T06:22:46.096Z,61.66
2018-07-07T06:23:46.101Z,63.28
2018-07-07T06:24:46.053Z,63.89
2018-07-07T06:25:46.037Z,65.70
2018-07-07T06:26:46.071Z,62.57
2018-07-07T06:27:46.013Z,63.10
2018-07-07T06:28:46.007Z,62.19
2018-07-07T06:29:45.996Z,63.10
2018-07-07T06:30:46.011Z,65.03
2018-07-07T06:31:45.979Z,65.73
2018-07-07T06:32:45.966Z,64.02
2018-07-07T06:33:45.953Z,63.10
2018-07-07T06:34:45.941Z,63.81
2018-07-07T06:35:45.925Z,63.75
2018-07-07T06:36:45.917Z,64.02
2018-07-07T06:37:45.911Z,63.34
2018-07-07T06:38:45.928Z,64.35
2018-07-07T06:39:45.882Z,65.77
2018-07-07T06:40:45.872Z,62.93
2018-07-07T06:41:45.869Z,64.45
2018-07-07T06:42:45.856Z,60.41
2018-07-07T06:43:45.919Z,64.96
2018-07-07T06:44:45.835Z,63.95
2018-07-07T06:45:45.820Z,64.96
2018-07-07T06:46:45.806Z,64.04
2018-07-07T06:47:45.796Z,65.03
2018-07-07T06:48:45.787Z,60.41
2018-07-07T06:49:45.795Z,62.84
2018-07-07T06:50:45.771Z,63.31
2018-07-07T06:51:45.760Z,63.10
2018-07-07T06:52:45.748Z,60.27
2018-07-07T06:53:45.755Z,61.69
2018-07-07T06:54:45.724Z,63.01
2018-07-07T06:55:45.717Z,61.79
2018-07-07T06:56:45.705Z,63.68
2018-07-07T06:57:45.692Z,65.10
2018-07-07T06:58:45.679Z,63.38
2018-07-07T06:59:45.674Z,59.64
2018-07-07T07:00:45.666Z,57.01
2018-07-07T07:01:45.654Z,60.35
2018-07-07T07:02:45.653Z,63.08
2018-07-07T07:03:45.635Z,63.78
2018-07-07T07:04:45.631Z,61.76
2018-07-07T07:05:45.627Z,62.37
2018-07-07T07:06:45.609Z,60.75
2018-07-07T07:07:45.629Z,59.91
2018-07-07T07:08:45.622Z,58.53
2018-07-07T07:09:45.623Z,62.14
2018-07-07T07:10:45.573Z,60.82
2018-07-07T07:11:45.546Z,59.61
2018-07-07T07:12:45.532Z,54.16
2018-07-07T07:13:45.524Z,55.98
2018-07-07T07:14:45.544Z,59.91
2018-07-07T07:15:45.620Z,53.75
2018-07-07T07:16:45.491Z,54.25
2018-07-07T07:17:45.477Z,50.80
2018-07-07T07:18:45.466Z,48.88
2018-07-07T07:19:45.455Z,54.81
2018-07-07T07:20:45.453Z,52.01
2018-07-07T07:21:45.437Z,50.29
2018-07-07T07:22:45.432Z,53.80
2018-07-07T07:23:45.426Z,52.89
2018-07-07T07:24:45.404Z,46.73
2018-07-07T07:25:45.393Z,45.53
2018-07-07T07:26:45.378Z,46.31
2018-07-07T07:27:45.373Z,49.82
2018-07-07T07:28:45.361Z,52.44
2018-07-07T07:29:45.346Z,54.76
2018-07-07T07:30:45.358Z,48.81
2018-07-07T07:31:45.322Z,53.96
2018-07-07T07:32:45.314Z,47.80
2018-07-07T07:33:45.305Z,48.41
2018-07-07T07:34:45.303Z,49.82
2018-07-07T07:35:45.285Z,54.25
2018-07-07T07:36:45.288Z,57.89
2018-07-07T07:37:45.259Z,52.74
2018-07-07T07:38:45.245Z,54.36
2018-07-07T07:39:45.234Z,53.85
2018-07-07T07:40:45.225Z,50.22
2018-07-07T07:41:45.249Z,55.64
2018-07-07T07:42:45.212Z,50.10
2018-07-07T07:43:45.192Z,46.14
2018-07-07T07:44:45.191Z,50.78
2018-07-07T07:45:45.199Z,47.75
2018-07-07T07:46:45.181Z,44.93
2018-07-07T07:47:45.204Z,43.71
2018-07-07T07:48:45.146Z,46.62
2018-07-07T07:49:45.128Z,49.24
2018-07-07T07:50:45.134Z,47.13
2018-07-07T07:51:45.107Z,48.41
2018-07-07T07:52:45.118Z,48.92
2018-07-07T07:53:45.092Z,45.50
2018-07-07T07:54:45.089Z,50.33
2018-07-07T07:55:45.082Z,51.73
2018-07-07T07:56:45.130Z,50.93
2018-07-07T07:57:45.042Z,49.73
2018-07-07T07:58:45.039Z,49.60
2018-07-07T07:59:45.033Z,47.69
2018-07-07T08:00:45.014Z,47.79
2018-07-07T08:01:44.998Z,49.19
2018-07-07T08:02:44.992Z,50.28
2018-07-07T08:03:44.997Z,46.88
2018-07-07T08:04:44.979Z,47.66
2018-07-07T08:05:44.965Z,49.30
2018-07-07T08:06:44.949Z,52.89
2018-07-07T08:07:44.958Z,47.56
2018-07-07T08:08:44.926Z,53.02
2018-07-07T08:09:44.913Z,51.09
2018-07-07T08:10:44.900Z,53.70
2018-07-07T08:11:44.889Z,47.97
2018-07-07T08:12:44.900Z,50.28
2018-07-07T08:13:44.874Z,48.57
2018-07-07T08:14:44.866Z,49.88
2018-07-07T08:15:44.849Z,51.59
2018-07-07T08:16:44.839Z,46.36
2018-07-07T08:17:44.862Z,51.39
2018-07-07T08:18:44.821Z,47.97
2018-07-07T08:19:44.812Z,48.44
2018-07-07T08:20:44.800Z,48.14
2018-07-07T08:21:44.786Z,48.83
2018-07-07T08:22:44.824Z,51.84
2018-07-07T08:23:44.765Z,51.81
2018-07-07T08:24:44.753Z,50.41
2018-07-07T08:25:44.743Z,50.81
2018-07-07T08:26:44.736Z,48.48
2018-07-07T08:27:44.725Z,47.88
2018-07-07T08:28:44.724Z,46.75
2018-07-07T08:29:44.699Z,50.94
2018-07-07T08:30:44.690Z,46.83
2018-07-07T08:31:44.683Z,46.12
2018-07-07T08:32:44.676Z,47.71
2018-07-07T08:33:44.680Z,47.28
2018-07-07T08:34:44.662Z,50.16
2018-07-07T08:35:44.636Z,48.24
2018-07-07T08:36:44.630Z,42.21
2018-07-07T08:37:44.618Z,45.69
2018-07-07T08:38:44.636Z,43.07
2018-07-07T08:39:44.619Z,40.37
2018-07-07T08:40:44.592Z,41.47
2018-07-07T08:41:44.595Z,41.38
2018-07-07T08:42:44.612Z,42.25
2018-07-07T08:43:44.598Z,45.93
2018-07-07T08:44:44.544Z,45.01
2018-07-07T08:45:44.539Z,39.80
2018-07-07T08:46:44.525Z,39.70
2018-07-07T08:47:44.513Z,41.60
2018-07-07T08:48:44.503Z,41.69
2018-07-07T08:49:44.520Z,41.08
2018-07-07T08:50:44.488Z,43.87
2018-07-07T08:51:44.475Z,41.85
2018-07-07T08:52:44.473Z,41.14
2018-07-07T08:53:44.454Z,40.74
2018-07-07T08:54:44.470Z,42.83
2018-07-07T08:55:44.430Z,40.44
2018-07-07T08:56:44.420Z,39.94
2018-07-07T08:57:44.417Z,41.33
2018-07-07T08:58:44.406Z,43.73
2018-07-07T08:59:44.396Z,41.30
2018-07-07T09:00:44.400Z,39.40
2018-07-07T09:01:44.371Z,39.70
2018-07-07T09:02:44.369Z,41.20
2018-07-07T09:03:44.357Z,37.99
2018-07-07T09:04:44.348Z,37.98
2018-07-07T09:05:44.333Z,37.06
2018-07-07T09:06:44.326Z,37.56
2018-07-07T09:07:44.326Z,37.45
2018-07-07T09:08:44.302Z,36.65
2018-07-07T09:09:44.459Z,37.82
2018-07-07T09:10:44.323Z,37.52
2018-07-07T09:11:44.276Z,39.21
2018-07-07T09:12:44.271Z,37.62
2018-07-07T09:13:44.255Z,40.58
2018-07-07T09:14:44.250Z,36.32
2018-07-07T09:15:44.237Z,34.92
2018-07-07T09:16:44.223Z,39.87
2018-07-07T09:17:44.224Z,37.29
2018-07-07T09:18:44.274Z,38.60
2018-07-07T09:19:44.196Z,40.78
2018-07-07T09:20:44.203Z,37.21
2018-07-07T09:21:44.180Z,39.37
2018-07-07T09:22:44.170Z,38.46
2018-07-07T09:23:44.157Z,36.28
2018-07-07T09:24:44.155Z,37.27
2018-07-07T09:25:44.162Z,35.41
2018-07-07T09:26:44.130Z,37.98
2018-07-07T09:27:44.126Z,38.56
2018-07-07T09:28:45.190Z,37.27
2018-07-07T09:29:44.148Z,37.27
2018-07-07T09:30:44.111Z,37.05
2018-07-07T09:31:44.181Z,39.12
2018-07-07T09:32:44.075Z,35.35
2018-07-07T09:33:44.091Z,35.65
2018-07-07T09:34:44.053Z,38.62
2018-07-07T09:35:44.376Z,39.31
2018-07-07T09:36:44.050Z,36.24
2018-07-07T09:37:44.022Z,38.03
2018-07-07T09:38:44.051Z,38.82
2018-07-07T09:39:44.008Z,39.00
2018-07-07T09:40:43.997Z,35.72
2018-07-07T09:41:44.013Z,37.68
2018-07-07T09:42:43.979Z,35.70
2018-07-07T09:43:43.985Z,36.37
2018-07-07T09:44:43.961Z,34.88
2018-07-07T09:45:43.947Z,34.46
2018-07-07T09:46:43.958Z,32.29
2018-07-07T09:47:43.938Z,34.18
2018-07-07T09:48:43.920Z,32.03
2018-07-07T09:49:43.914Z,33.90
2018-07-07T09:50:43.900Z,34.78
2018-07-07T09:51:43.919Z,33.89
2018-07-07T09:52:43.874Z,37.82
2018-07-07T09:53:43.875Z,37.23
2018-07-07T09:54:43.942Z,34.94
2018-07-07T09:55:43.848Z,36.02
2018-07-07T09:56:43.841Z,34.64
2018-07-07T09:57:43.835Z,31.60
2018-07-07T09:58:43.821Z,33.77
2018-07-07T09:59:43.804Z,37.15
2018-07-07T10:00:43.798Z,36.37
2018-07-07T10:01:43.790Z,36.51
2018-07-07T10:02:43.801Z,34.83
2018-07-07T10:03:43.765Z,37.91
2018-07-07T10:04:43.759Z,39.31
2018-07-07T10:05:43.739Z,37.45
2018-07-07T10:06:43.732Z,37.85
2018-07-07T10:07:43.794Z,38.26
2018-07-07T10:08:43.716Z,40.56
2018-07-07T10:09:43.703Z,41.58
2018-07-07T10:10:43.689Z,38.52
2018-07-07T10:11:43.684Z,41.02
2018-07-07T10:12:43.667Z,41.31
2018-07-07T10:13:43.666Z,39.35
2018-07-07T10:14:43.649Z,40.26
2018-07-07T10:15:43.639Z,41.17
2018-07-07T10:16:43.630Z,39.70
2018-07-07T10:17:43.617Z,42.51
2018-07-07T10:18:43.634Z,41.42
2018-07-07T10:19:43.600Z,41.12
2018-07-07T10:20:43.611Z,45.20
2018-07-07T10:21:44.597Z,42.11
2018-07-07T10:22:43.595Z,43.68
2018-07-07T10:23:43.595Z,41.91
2018-07-07T10:24:43.534Z,45.00
2018-07-07T10:25:43.532Z,43.38
2018-07-07T10:26:43.519Z,45.30
2018-07-07T10:27:43.509Z,51.87
2018-07-07T10:28:43.529Z,48.86
2018-07-07T10:29:43.481Z,43.51
2018-07-07T10:30:43.473Z,45.18
2018-07-07T10:31:43.461Z,43.38
2018-07-07T10:32:43.451Z,45.18
2018-07-07T10:33:43.445Z,44.78
2018-07-07T10:34:43.436Z,48.26
2018-07-07T10:35:43.422Z,41.17
2018-07-07T10:36:43.414Z,42.47
2018-07-07T10:37:43.396Z,44.76
2018-07-07T10:38:43.415Z,41.00
2018-07-07T10:39:43.381Z,44.38
2018-07-07T10:40:43.373Z,47.56
2018-07-07T10:41:43.358Z,41.20
2018-07-07T10:42:43.352Z,43.96
2018-07-07T10:43:44.135Z,45.65
2018-07-07T10:44:43.376Z,43.46
2018-07-07T10:45:43.367Z,43.96
2018-07-07T10:46:43.329Z,41.28
2018-07-07T10:47:43.306Z,40.16
2018-07-07T10:48:43.320Z,47.72
2018-07-07T10:49:43.278Z,45.01
2018-07-07T10:50:43.278Z,39.43
2018-07-07T10:51:43.259Z,44.97
2018-07-07T10:52:43.247Z,40.38
2018-07-07T10:53:43.243Z,40.94
2018-07-07T10:54:43.233Z,39.73
2018-07-07T10:55:43.220Z,37.41
2018-07-07T10:56:43.207Z,38.88
2018-07-07T10:57:43.206Z,43.12
2018-07-07T10:58:43.195Z,38.65
2018-07-07T10:59:43.184Z,37.15
2018-07-07T11:00:43.175Z,39.03
2018-07-07T11:01:43.162Z,34.41
2018-07-07T11:02:43.219Z,42.84
2018-07-07T11:03:43.136Z,40.39
2018-07-07T11:04:43.148Z,42.68
2018-07-07T11:05:43.125Z,36.68
2018-07-07T11:06:43.107Z,40.05
2018-07-07T11:07:43.096Z,38.36
2018-07-07T11:08:43.100Z,41.95
2018-07-07T11:09:43.098Z,46.14
2018-07-07T11:10:43.062Z,42.47
2018-07-07T11:11:43.102Z,43.78
2018-07-07T11:12:43.049Z,43.85
2018-07-07T11:13:43.031Z,36.61
2018-07-07T11:14:43.050Z,42.96
2018-07-07T11:15:43.012Z,43.66
2018-07-07T11:16:43.002Z,36.41
2018-07-07T11:17:42.996Z,40.68
2018-07-07T11:18:42.987Z,37.49
2018-07-07T11:19:42.975Z,37.69
2018-07-07T11:20:42.973Z,37.69
2018-07-07T11:21:42.952Z,40.96
2018-07-07T11:22:42.944Z,37.67
2018-07-07T11:23:42.936Z,37.37
2018-07-07T11:24:42.928Z,35.47
2018-07-07T11:25:42.948Z,39.51
2018-07-07T11:26:42.913Z,37.70
2018-07-07T11:27:42.902Z,32.52
2018-07-07T11:28:42.901Z,34.55
2018-07-07T11:29:42.937Z,31.34
2018-07-07T11:30:42.900Z,30.62
2018-07-07T11:31:42.889Z,36.02
2018-07-07T11:32:42.862Z,31.77
2018-07-07T11:33:42.855Z,29.19
2018-07-07T11:34:42.883Z,30.07
2018-07-07T11:35:42.875Z,33.62
2018-07-07T11:36:43.049Z,34.89
2018-07-07T11:37:42.845Z,30.45
2018-07-07T11:38:42.822Z,30.63
2018-07-07T11:39:42.802Z,30.19
2018-07-07T11:40:42.817Z,27.42
2018-07-07T11:41:42.792Z,29.08
2018-07-07T11:42:42.780Z,27.23
2018-07-07T11:43:42.768Z,28.63
2018-07-07T11:44:42.764Z,28.31
2018-07-07T11:45:42.750Z,28.39
2018-07-07T11:46:42.748Z,34.42
2018-07-07T11:47:42.744Z,29.73
2018-07-07T11:48:42.728Z,28.44
2018-07-07T11:49:42.723Z,29.32
2018-07-07T11:50:42.724Z,28.32
2018-07-07T11:51:42.730Z,28.42
2018-07-07T11:52:42.699Z,25.88
2018-07-07T11:53:42.683Z,27.15
2018-07-07T11:54:42.680Z,27.25
2018-07-07T11:55:42.681Z,31.16
2018-07-07T11:56:42.660Z,28.91
2018-07-07T11:57:42.662Z,27.31
2018-07-07T11:58:42.651Z,25.92
2018-07-07T11:59:42.640Z,30.32
2018-07-07T12:00:42.631Z,30.80
2018-07-07T12:01:42.688Z,25.82
2018-07-07T12:02:42.660Z,26.61
2018-07-07T12:03:42.613Z,28.34
2018-07-07T12:04:42.867Z,24.13
2018-07-07T12:05:42.594Z,25.31
2018-07-07T12:06:42.672Z,28.63
2018-07-07T12:07:42.582Z,28.54
2018-07-07T12:08:42.676Z,23.46
2018-07-07T12:09:42.576Z,25.60
2018-07-07T12:10:42.566Z,25.21
2018-07-07T12:11:42.627Z,27.18
2018-07-07T12:12:42.549Z,24.76
2018-07-07T12:13:42.538Z,24.76
2018-07-07T12:14:42.588Z,25.71
2018-07-07T12:15:42.527Z,23.47
2018-07-07T12:16:42.525Z,25.05
2018-07-07T12:17:42.508Z,26.04
2018-07-07T12:18:42.505Z,25.05
2018-07-07T12:19:42.495Z,28.26
2018-07-07T12:20:42.521Z,25.60
2018-07-07T12:21:42.484Z,22.96
2018-07-07T12:22:42.474Z,26.02
2018-07-07T12:23:42.511Z,25.54
2018-07-07T12:24:42.481Z,25.63
2018-07-07T12:25:42.454Z,25.04
2018-07-07T12:26:42.488Z,24.77
2018-07-07T12:27:42.436Z,26.32
2018-07-07T12:28:42.427Z,26.69
2018-07-07T12:29:42.430Z,27.45
2018-07-07T12:30:42.416Z,23.08
2018-07-07T12:31:42.407Z,23.58
2018-07-07T12:32:42.413Z,25.84
2018-07-07T12:33:42.397Z,25.93
2018-07-07T12:34:42.389Z,26.82
2018-07-07T12:35:42.384Z,30.13
2018-07-07T12:36:42.405Z,26.50
2018-07-07T12:37:42.365Z,25.49
2018-07-07T12:38:42.371Z,24.80
2018-07-07T12:39:42.378Z,23.52
2018-07-07T12:40:42.344Z,22.53
2018-07-07T12:41:42.341Z,24.66
2018-07-07T12:42:42.327Z,23.70
2018-07-07T12:43:42.484Z,27.86
2018-07-07T12:44:42.375Z,24.44
2018-07-07T12:45:42.311Z,21.54
2018-07-07T12:46:42.319Z,23.00
2018-07-07T12:47:42.309Z,22.41
2018-07-07T12:48:42.286Z,21.54
2018-07-07T12:49:42.278Z,21.81
2018-07-07T12:50:42.293Z,26.17
2018-07-07T12:51:42.260Z,22.49
2018-07-07T12:52:42.251Z,26.09